createdAt,value
2018-10-03T00:00:37.926Z,94.00
2018-10-03T00:03:05.907Z,94.10
2018-10-03T00:05:33.468Z,94.10
2018-10-03T00:08:01.028Z,94.10
2018-10-03T00:10:29.308Z,94.20
2018-10-03T00:12:56.865Z,94.20
2018-10-03T00:15:24.429Z,94.20
2018-10-03T00:17:52.031Z,94.30
2018-10-03T00:20:20.372Z,94.70
2018-10-03T00:22:47.937Z,94.40
2018-10-03T00:25:15.538Z,94.40
2018-10-03T00:27:43.099Z,94.30
2018-10-03T00:30:11.435Z,94.30
2018-10-03T00:32:39.066Z,94.30
2018-10-03T00:35:06.628Z,94.30
2018-10-03T00:37:34.192Z,94.40
2018-10-03T00:40:02.190Z,94.40
2018-10-03T00:42:29.756Z,94.40
2018-10-03T00:44:57.313Z,94.30
2018-10-03T00:47:24.918Z,94.30
2018-10-03T00:49:52.479Z,94.30
2018-10-03T00:52:20.845Z,94.30
2018-10-03T00:54:48.464Z,94.30
2018-10-03T00:57:16.022Z,94.30
2018-10-03T00:59:43.582Z,94.30
2018-10-03T01:02:11.185Z,94.30
2018-10-03T01:04:38.745Z,93.80
2018-10-03T01:07:06.305Z,93.70
2018-10-03T01:09:33.905Z,93.70
2018-10-03T01:12:01.465Z,93.70
2018-10-03T01:14:29.780Z,93.00
2018-10-03T01:16:57.380Z,93.00
2018-10-03T01:19:24.950Z,93.00
2018-10-03T01:21:52.556Z,93.00
2018-10-03T01:24:20.157Z,93.20
2018-10-03T01:26:47.712Z,93.30
2018-10-03T01:29:15.270Z,93.40
2018-10-03T01:31:42.901Z,93.60
2018-10-03T01:34:10.460Z,93.30
2018-10-03T01:36:38.013Z,93.40
2018-10-03T01:39:05.634Z,93.10
2018-10-03T01:41:33.201Z,93.10
2018-10-03T01:44:01.526Z,93.40
2018-10-03T01:46:29.112Z,93.40
2018-10-03T01:48:56.670Z,93.10
2018-10-03T01:51:24.227Z,93.20
2018-10-03T01:53:51.819Z,93.30
2018-10-03T01:56:19.385Z,93.40
2018-10-03T01:58:46.951Z,93.10
2018-10-03T02:01:14.564Z,93.00
2018-10-03T02:03:42.119Z,92.80
2018-10-03T02:06:09.679Z,93.30
2018-10-03T02:08:37.278Z,93.40
2018-10-03T02:11:04.833Z,93.50
2018-10-03T02:13:32.384Z,93.50
2018-10-03T02:15:59.988Z,93.70
2018-10-03T02:18:27.542Z,93.70
2018-10-03T02:20:55.878Z,94.10
2018-10-03T02:23:23.503Z,93.70
2018-10-03T02:25:51.060Z,93.80
2018-10-03T02:28:18.614Z,93.90
2018-10-03T02:30:46.202Z,93.90
2018-10-03T02:33:13.758Z,94.00
2018-10-03T02:35:41.314Z,94.10
2018-10-03T02:38:08.906Z,94.20
2018-10-03T02:40:36.463Z,94.30
2018-10-03T02:43:04.022Z,94.40
2018-10-03T02:45:31.630Z,94.40
2018-10-03T02:47:59.961Z,94.60
2018-10-03T02:50:27.515Z,94.50
2018-10-03T02:52:55.102Z,94.40
2018-10-03T02:55:22.672Z,94.50
2018-10-03T02:57:50.235Z,94.50
2018-10-03T03:00:17.833Z,94.40
2018-10-03T03:02:46.161Z,94.40
2018-10-03T03:05:13.713Z,94.40
2018-10-03T03:07:42.402Z,94.40
2018-10-03T03:10:09.964Z,94.40
2018-10-03T03:12:37.521Z,94.50
2018-10-03T03:15:05.140Z,94.50
2018-10-03T03:17:32.667Z,94.60
2018-10-03T03:20:00.466Z,94.60
2018-10-03T03:22:28.818Z,94.60
2018-10-03T03:24:56.392Z,94.60
2018-10-03T03:27:23.944Z,94.50
2018-10-03T03:29:51.556Z,94.60
2018-10-03T03:32:19.120Z,94.20
2018-10-03T03:34:46.680Z,94.10
2018-10-03T03:37:14.354Z,93.80
2018-10-03T03:39:41.927Z,93.70
2018-10-03T03:42:09.486Z,93.80
2018-10-03T03:44:37.081Z,93.80
2018-10-03T03:47:04.651Z,93.80
2018-10-03T03:49:32.184Z,93.90
2018-10-03T03:51:59.787Z,93.90
2018-10-03T03:54:28.112Z,94.00
2018-10-03T03:56:55.681Z,93.90
2018-10-03T03:59:23.267Z,93.60
2018-10-03T04:01:50.820Z,93.60
2018-10-03T04:04:18.378Z,93.60
2018-10-03T04:06:45.969Z,93.60
2018-10-03T04:09:14.309Z,93.60
2018-10-03T04:11:42.644Z,93.60
2018-10-03T04:14:10.264Z,93.60
2018-10-03T04:16:37.822Z,93.60
2018-10-03T04:19:05.386Z,93.60
2018-10-03T04:21:33.038Z,93.70
2018-10-03T04:24:00.645Z,93.30
2018-10-03T04:26:28.207Z,93.20
2018-10-03T04:28:55.809Z,93.20
2018-10-03T04:31:23.376Z,93.20
2018-10-03T04:33:50.942Z,93.20
2018-10-03T04:36:19.005Z,92.80
2018-10-03T04:38:46.569Z,92.70
2018-10-03T04:41:14.130Z,92.60
2018-10-03T04:43:41.735Z,92.30
2018-10-03T04:46:10.056Z,92.40
2018-10-03T04:48:37.612Z,92.40
2018-10-03T04:51:05.215Z,92.50
2018-10-03T04:53:32.771Z,92.60
2018-10-03T04:56:00.344Z,92.70
2018-10-03T04:58:27.966Z,92.80
2018-10-03T05:00:55.845Z,93.00
2018-10-03T05:03:23.418Z,92.60
2018-10-03T05:05:51.491Z,92.60
2018-10-03T05:08:19.051Z,92.70
2018-10-03T05:10:46.619Z,92.80
2018-10-03T05:13:14.297Z,92.40
2018-10-03T05:15:41.880Z,92.10
2018-10-03T05:18:09.484Z,92.10
2018-10-03T05:20:37.099Z,92.20
2018-10-03T05:23:05.422Z,92.40
2018-10-03T05:25:32.982Z,92.30
2018-10-03T05:28:01.034Z,92.40
2018-10-03T05:30:28.534Z,92.50
2018-10-03T05:32:56.091Z,92.60
2018-10-03T05:35:23.688Z,92.70
2018-10-03T05:37:51.246Z,92.90
2018-10-03T05:40:18.799Z,93.00
2018-10-03T05:42:46.434Z,93.00
2018-10-03T05:45:14.002Z,93.00
2018-10-03T05:47:41.565Z,93.10
2018-10-03T05:50:09.171Z,93.10
2018-10-03T05:52:37.510Z,93.40
2018-10-03T05:55:05.067Z,93.40
2018-10-03T05:57:34.258Z,93.00
2018-10-03T06:00:01.823Z,93.00
2018-10-03T06:02:29.372Z,93.10
2018-10-03T06:04:56.978Z,93.10
2018-10-03T06:07:24.542Z,93.20
2018-10-03T06:09:52.100Z,93.30
2018-10-03T06:12:21.190Z,93.70
2018-10-03T06:14:48.712Z,93.40
2018-10-03T06:17:16.265Z,93.40
2018-10-03T06:19:43.882Z,93.50
2018-10-03T06:22:12.205Z,93.60
2018-10-03T06:24:40.087Z,93.60
2018-10-03T06:27:08.198Z,93.60
2018-10-03T06:29:35.765Z,93.70
2018-10-03T06:32:04.089Z,93.70
2018-10-03T06:34:32.177Z,93.70
2018-10-03T06:36:59.747Z,93.70
2018-10-03T06:39:27.355Z,93.80
2018-10-03T06:41:55.270Z,93.80
2018-10-03T06:44:22.850Z,93.90
2018-10-03T06:46:50.394Z,93.40
2018-10-03T06:49:18.010Z,93.30
2018-10-03T06:51:46.338Z,93.40
2018-10-03T06:54:13.903Z,93.40
2018-10-03T06:56:41.542Z,93.50
2018-10-03T06:59:09.103Z,93.60
2018-10-03T07:01:36.677Z,93.70
2018-10-03T07:04:05.173Z,93.80
2018-10-03T07:06:32.749Z,94.20
2018-10-03T07:09:00.313Z,93.80
2018-10-03T07:11:28.776Z,94.00
2018-10-03T07:13:56.337Z,93.60
2018-10-03T07:16:23.896Z,93.50
2018-10-03T07:18:51.501Z,93.60
2018-10-03T07:21:19.826Z,93.80
2018-10-03T07:23:47.623Z,93.80
2018-10-03T07:26:15.617Z,93.40
2018-10-03T07:28:43.160Z,93.40
2018-10-03T07:31:10.738Z,93.50
2018-10-03T07:33:39.112Z,93.10
2018-10-03T07:36:07.442Z,93.30
2018-10-03T07:38:35.004Z,93.10
2018-10-03T07:41:02.616Z,93.10
2018-10-03T07:43:30.187Z,93.10
2018-10-03T07:45:58.520Z,92.80
2018-10-03T07:48:26.142Z,92.80
2018-10-03T07:50:53.707Z,92.70
2018-10-03T07:53:21.267Z,92.60
2018-10-03T07:55:48.894Z,92.40
2018-10-03T07:58:16.459Z,92.20
2018-10-03T08:00:44.024Z,92.20
2018-10-03T08:03:12.408Z,92.00
2018-10-03T08:05:40.727Z,91.90
2018-10-03T08:08:08.285Z,91.70
2018-10-03T08:10:35.934Z,91.60
2018-10-03T08:13:03.495Z,91.40
2018-10-03T08:15:31.058Z,91.30
2018-10-03T08:17:59.607Z,91.00
2018-10-03T08:20:27.168Z,90.70
2018-10-03T08:22:54.735Z,90.40
2018-10-03T08:25:23.146Z,90.50
2018-10-03T08:27:50.718Z,90.50
2018-10-03T08:30:18.286Z,90.60
2018-10-03T08:32:46.050Z,90.60
2018-10-03T08:35:14.234Z,90.30
2018-10-03T08:37:41.800Z,90.20
2018-10-03T08:40:10.502Z,89.30
2018-10-03T08:42:38.076Z,88.00
2018-10-03T08:45:05.636Z,86.30
2018-10-03T08:47:33.315Z,85.50
2018-10-03T08:50:00.886Z,83.60
2018-10-03T08:52:28.704Z,82.40
2018-10-03T08:54:56.342Z,81.50
2018-10-03T08:57:23.913Z,81.50
2018-10-03T08:59:51.477Z,81.60
2018-10-03T09:02:20.406Z,82.00
2018-10-03T09:04:47.971Z,82.40
2018-10-03T09:07:15.531Z,82.10
2018-10-03T09:09:43.568Z,82.80
2018-10-03T09:12:11.152Z,82.00
2018-10-03T09:14:40.510Z,82.40
2018-10-03T09:17:08.130Z,82.70
2018-10-03T09:19:35.687Z,80.60
2018-10-03T09:22:03.254Z,80.50
2018-10-03T09:24:30.892Z,80.10
2018-10-03T09:26:58.460Z,79.20
2018-10-03T09:29:26.257Z,78.60
2018-10-03T09:31:53.876Z,77.00
2018-10-03T09:34:21.452Z,75.70
2018-10-03T09:36:49.017Z,75.80
2018-10-03T09:39:16.634Z,75.20
2018-10-03T09:41:44.200Z,75.40
2018-10-03T09:44:11.769Z,75.10
2018-10-03T09:46:39.379Z,75.20
2018-10-03T09:49:06.943Z,75.40
2018-10-03T09:51:34.817Z,74.70
2018-10-03T09:54:03.209Z,73.30
2018-10-03T09:56:30.775Z,73.30
2018-10-03T09:58:59.105Z,72.40
2018-10-03T10:01:26.722Z,72.40
2018-10-03T10:03:54.312Z,71.20
2018-10-03T10:06:22.122Z,71.20
2018-10-03T10:08:49.739Z,71.20
2018-10-03T10:11:17.408Z,71.10
2018-10-03T10:13:44.874Z,70.70
2018-10-03T10:16:12.521Z,70.70
2018-10-03T10:18:40.084Z,70.60
2018-10-03T10:21:07.649Z,68.90
2018-10-03T10:23:35.304Z,69.00
2018-10-03T10:26:02.863Z,68.50
2018-10-03T10:28:30.425Z,68.50
2018-10-03T10:30:58.042Z,68.70
2018-10-03T10:33:25.621Z,68.80
2018-10-03T10:35:53.956Z,68.10
2018-10-03T10:38:21.578Z,68.10
2018-10-03T10:40:49.484Z,68.10
2018-10-03T10:43:17.114Z,67.60
2018-10-03T10:45:44.695Z,67.50
2018-10-03T10:48:12.262Z,68.60
2018-10-03T10:50:39.832Z,68.20
2018-10-03T10:53:08.613Z,67.50
2018-10-03T10:55:36.183Z,67.40
2018-10-03T10:58:03.770Z,67.00
2018-10-03T11:00:31.886Z,66.60
2018-10-03T11:02:59.463Z,65.50
2018-10-03T11:05:27.021Z,65.40
2018-10-03T11:07:54.638Z,63.80
2018-10-03T11:10:22.970Z,64.10
2018-10-03T11:12:50.540Z,63.30
2018-10-03T11:15:18.526Z,63.20
2018-10-03T11:17:46.091Z,63.40
2018-10-03T11:20:13.658Z,63.80
2018-10-03T11:22:42.079Z,64.40
2018-10-03T11:25:09.652Z,64.30
2018-10-03T11:27:37.219Z,62.90
2018-10-03T11:30:04.840Z,62.50
2018-10-03T11:32:33.175Z,63.30
2018-10-03T11:35:00.742Z,63.30
2018-10-03T11:37:28.704Z,63.20
2018-10-03T11:39:56.273Z,63.20
2018-10-03T11:42:23.853Z,63.20
2018-10-03T11:44:52.002Z,62.80
2018-10-03T11:47:19.566Z,62.30
2018-10-03T11:49:47.132Z,59.70
2018-10-03T11:52:15.310Z,60.00
2018-10-03T11:54:42.871Z,60.40
2018-10-03T11:57:10.500Z,60.40
2018-10-03T11:59:38.083Z,60.60
2018-10-03T12:02:05.608Z,60.50
2018-10-03T12:04:33.170Z,60.10
2018-10-03T12:07:01.695Z,60.10
2018-10-03T12:09:29.249Z,59.60
2018-10-03T12:11:56.819Z,59.70
2018-10-03T12:14:24.425Z,59.60
2018-10-03T12:16:51.994Z,59.40
2018-10-03T12:19:20.319Z,59.40
2018-10-03T12:21:47.965Z,59.40
2018-10-03T12:24:15.534Z,59.10
2018-10-03T12:26:43.106Z,58.80
2018-10-03T12:29:11.074Z,58.70
2018-10-03T12:31:38.645Z,58.60
2018-10-03T12:34:06.224Z,58.60
2018-10-03T12:36:34.469Z,58.40
2018-10-03T12:39:02.049Z,58.30
2018-10-03T12:41:29.609Z,58.40
2018-10-03T12:43:57.241Z,57.90
2018-10-03T12:46:24.800Z,57.70
2018-10-03T12:48:52.376Z,57.80
2018-10-03T12:51:20.665Z,57.80
2018-10-03T12:53:48.238Z,57.90
2018-10-03T12:56:15.804Z,57.00
2018-10-03T12:58:43.431Z,57.00
2018-10-03T13:01:11.015Z,56.90
2018-10-03T13:03:38.869Z,56.70
2018-10-03T13:06:06.493Z,56.60
2018-10-03T13:08:34.068Z,56.70
2018-10-03T13:11:01.633Z,56.90
2018-10-03T13:13:30.567Z,56.70
2018-10-03T13:15:58.144Z,55.70
2018-10-03T13:18:25.714Z,55.30
2018-10-03T13:20:54.596Z,54.70
2018-10-03T13:23:22.158Z,54.70
2018-10-03T13:25:49.724Z,54.90
2018-10-03T13:28:18.203Z,54.90
2018-10-03T13:30:45.805Z,55.00
2018-10-03T13:33:13.295Z,54.80
2018-10-03T13:35:40.943Z,54.50
2018-10-03T13:38:08.499Z,54.20
2018-10-03T13:40:36.067Z,54.20
2018-10-03T13:43:04.374Z,54.20
2018-10-03T13:45:31.936Z,53.30
2018-10-03T13:47:59.499Z,53.10
2018-10-03T13:50:27.760Z,52.80
2018-10-03T13:52:55.349Z,53.20
2018-10-03T13:55:22.929Z,53.20
2018-10-03T13:57:52.103Z,53.00
2018-10-03T14:00:19.693Z,52.50
2018-10-03T14:02:47.236Z,52.50
2018-10-03T14:05:15.629Z,50.80
2018-10-03T14:07:43.190Z,51.10
2018-10-03T14:10:10.768Z,50.20
2018-10-03T14:12:38.389Z,49.70
2018-10-03T14:15:05.960Z,50.00
2018-10-03T14:17:33.522Z,50.20
2018-10-03T14:20:01.139Z,49.90
2018-10-03T14:22:28.719Z,50.10
2018-10-03T14:24:56.288Z,49.90
2018-10-03T14:27:23.958Z,49.00
2018-10-03T14:29:51.522Z,49.20
2018-10-03T14:32:20.021Z,49.40
2018-10-03T14:34:48.403Z,48.70
2018-10-03T14:37:15.957Z,48.60
2018-10-03T14:39:43.543Z,48.60
2018-10-03T14:42:11.183Z,48.80
2018-10-03T14:44:38.742Z,49.00
2018-10-03T14:47:06.303Z,49.10
2018-10-03T14:49:33.951Z,48.90
2018-10-03T14:52:01.555Z,49.30
2018-10-03T14:54:29.083Z,49.40
2018-10-03T14:56:56.710Z,49.10
2018-10-03T14:59:24.273Z,49.10
2018-10-03T15:01:51.841Z,49.40
2018-10-03T15:04:19.491Z,49.40
2018-10-03T15:06:47.069Z,49.60
2018-10-03T15:09:14.624Z,49.50
2018-10-03T15:11:42.250Z,49.10
2018-10-03T15:14:09.808Z,48.40
2018-10-03T15:16:37.401Z,48.50
2018-10-03T15:19:05.028Z,48.60
2018-10-03T15:21:32.607Z,48.70
2018-10-03T15:24:00.192Z,49.10
2018-10-03T15:26:28.310Z,49.20
2018-10-03T15:28:58.564Z,49.00
2018-10-03T15:31:26.125Z,48.90
2018-10-03T15:33:53.774Z,49.00
2018-10-03T15:36:21.337Z,48.90
2018-10-03T15:38:48.910Z,49.20
2018-10-03T15:41:16.521Z,49.20
2018-10-03T15:43:44.103Z,48.80
2018-10-03T15:46:11.677Z,48.50
2018-10-03T15:48:40.083Z,48.60
2018-10-03T15:51:07.644Z,48.60
2018-10-03T15:53:35.228Z,48.70
2018-10-03T15:56:03.427Z,48.80
2018-10-03T15:58:31.121Z,48.20
2018-10-03T16:00:58.700Z,47.80
2018-10-03T16:03:26.813Z,46.70
2018-10-03T16:05:54.378Z,46.80
2018-10-03T16:08:21.948Z,47.10
2018-10-03T16:10:49.595Z,47.30
2018-10-03T16:13:17.166Z,47.30
2018-10-03T16:15:44.722Z,47.30
2018-10-03T16:18:12.374Z,47.60
2018-10-03T16:20:39.910Z,47.70
2018-10-03T16:23:07.480Z,47.90
2018-10-03T16:25:35.788Z,48.20
2018-10-03T16:28:03.354Z,48.50
2018-10-03T16:30:30.929Z,48.90
2018-10-03T16:32:59.146Z,49.20
2018-10-03T16:35:26.721Z,49.70
2018-10-03T16:37:54.291Z,50.00
2018-10-03T16:40:21.943Z,50.40
2018-10-03T16:42:49.520Z,50.80
2018-10-03T16:45:17.088Z,50.90
2018-10-03T16:47:45.068Z,51.40
2018-10-03T16:50:12.629Z,51.60
2018-10-03T16:52:40.192Z,52.10
2018-10-03T16:55:07.814Z,52.30
2018-10-03T16:57:35.379Z,52.60
2018-10-03T17:00:02.976Z,52.50
2018-10-03T17:02:30.602Z,52.80
2018-10-03T17:04:58.177Z,53.20
2018-10-03T17:07:25.744Z,53.70
2018-10-03T17:09:53.382Z,53.60
2018-10-03T17:12:20.946Z,53.90
2018-10-03T17:14:48.512Z,54.30
2018-10-03T17:17:16.132Z,54.60
2018-10-03T17:19:43.789Z,55.00
2018-10-03T17:22:11.354Z,55.40
2018-10-03T17:24:38.997Z,55.70
2018-10-03T17:27:06.561Z,56.10
2018-10-03T17:29:34.126Z,56.40
2018-10-03T17:32:01.997Z,56.60
2018-10-03T17:34:29.422Z,57.00
2018-10-03T17:36:56.990Z,57.30
2018-10-03T17:39:24.601Z,57.60
2018-10-03T17:41:52.929Z,58.60
2018-10-03T17:44:20.490Z,58.50
2018-10-03T17:46:48.104Z,59.70
2018-10-03T17:49:16.451Z,60.70
2018-10-03T17:51:44.022Z,61.40
2018-10-03T17:54:11.669Z,61.40
2018-10-03T17:56:39.246Z,62.40
2018-10-03T17:59:06.870Z,62.20
2018-10-03T18:01:34.452Z,63.20
2018-10-03T18:04:02.016Z,62.90
2018-10-03T18:06:29.580Z,63.30
2018-10-03T18:08:57.442Z,64.10
2018-10-03T18:11:25.008Z,64.60
2018-10-03T18:13:52.639Z,65.30
2018-10-03T18:16:20.240Z,65.00
2018-10-03T18:18:47.809Z,66.30
2018-10-03T18:21:15.378Z,66.00
2018-10-03T18:23:43.794Z,67.40
2018-10-03T18:26:11.357Z,67.40
2018-10-03T18:28:38.922Z,67.20
2018-10-03T18:31:06.516Z,67.40
2018-10-03T18:33:34.084Z,67.90
2018-10-03T18:36:01.705Z,68.40
2018-10-03T18:38:29.267Z,68.80
2018-10-03T18:40:56.831Z,69.30
2018-10-03T18:43:24.485Z,69.70
2018-10-03T18:45:52.062Z,70.20
2018-10-03T18:48:19.700Z,70.70
2018-10-03T18:50:47.260Z,71.10
2018-10-03T18:53:14.822Z,71.60
2018-10-03T18:55:42.387Z,71.90
2018-10-03T18:58:10.082Z,72.40
2018-10-03T19:00:38.394Z,72.80
2018-10-03T19:03:05.964Z,72.80
2018-10-03T19:05:34.441Z,74.40
2018-10-03T19:08:01.954Z,74.00
2018-10-03T19:10:29.514Z,73.40
2018-10-03T19:12:57.131Z,73.60
2018-10-03T19:15:24.699Z,73.90
2018-10-03T19:17:52.263Z,74.20
2018-10-03T19:20:21.007Z,75.00
2018-10-03T19:22:48.568Z,75.00
2018-10-03T19:25:16.126Z,75.20
2018-10-03T19:27:43.728Z,75.50
2018-10-03T19:30:11.298Z,75.70
2018-10-03T19:32:39.636Z,76.40
2018-10-03T19:35:07.299Z,76.40
2018-10-03T19:37:34.868Z,76.70
2018-10-03T19:40:02.446Z,76.90
2018-10-03T19:42:30.072Z,77.20
2018-10-03T19:44:57.640Z,77.60
2018-10-03T19:47:25.206Z,77.80
2018-10-03T19:49:53.792Z,78.10
2018-10-03T19:52:21.362Z,78.40
2018-10-03T19:54:48.931Z,79.30
2018-10-03T19:57:17.425Z,78.80
2018-10-03T19:59:44.983Z,78.20
2018-10-03T20:02:12.543Z,77.50
2018-10-03T20:04:40.545Z,77.90
2018-10-03T20:07:08.078Z,78.20
2018-10-03T20:09:35.635Z,78.60
2018-10-03T20:12:03.260Z,78.70
2018-10-03T20:14:30.875Z,79.00
2018-10-03T20:16:58.407Z,79.30
2018-10-03T20:19:26.359Z,79.60
2018-10-03T20:21:53.928Z,80.00
2018-10-03T20:24:21.927Z,80.00
2018-10-03T20:26:49.484Z,79.20
2018-10-03T20:29:17.075Z,79.40
2018-10-03T20:31:44.674Z,79.60
2018-10-03T20:34:12.286Z,79.90
2018-10-03T20:36:40.110Z,80.10
2018-10-03T20:39:07.677Z,80.50
2018-10-03T20:41:35.260Z,80.90
2018-10-03T20:44:02.877Z,81.20
2018-10-03T20:46:30.441Z,81.30
2018-10-03T20:48:58.000Z,81.70
2018-10-03T20:51:26.095Z,82.60
2018-10-03T20:53:53.660Z,82.00
2018-10-03T20:56:21.220Z,82.20
2018-10-03T20:58:49.958Z,82.30
2018-10-03T21:01:16.382Z,82.40
2018-10-03T21:03:44.752Z,82.90
2018-10-03T21:06:13.097Z,83.10
2018-10-03T21:08:40.713Z,83.00
2018-10-03T21:11:08.322Z,83.30
2018-10-03T21:13:35.889Z,83.60
2018-10-03T21:16:03.453Z,83.80
2018-10-03T21:18:31.123Z,84.00
2018-10-03T21:20:59.729Z,84.10
2018-10-03T21:23:27.293Z,84.10
2018-10-03T21:25:55.641Z,84.30
2018-10-03T21:28:23.599Z,84.30
2018-10-03T21:30:51.573Z,84.30
2018-10-03T21:33:19.129Z,84.80
2018-10-03T21:35:46.690Z,84.10
2018-10-03T21:38:16.105Z,84.20
2018-10-03T21:40:43.662Z,84.50
2018-10-03T21:43:11.225Z,84.80
2018-10-03T21:45:38.816Z,85.00
2018-10-03T21:48:06.368Z,84.90
2018-10-03T21:50:33.973Z,84.90
2018-10-03T21:53:01.542Z,84.90
2018-10-03T21:55:29.104Z,85.00
2018-10-03T21:57:56.711Z,85.00
2018-10-03T22:00:24.266Z,85.10
2018-10-03T22:02:51.831Z,85.10
2018-10-03T22:05:19.420Z,85.30
2018-10-03T22:07:47.753Z,85.70
2018-10-03T22:10:15.393Z,85.70
2018-10-03T22:12:42.951Z,84.90
2018-10-03T22:15:10.505Z,84.90
2018-10-03T22:17:38.109Z,85.10
2018-10-03T22:20:05.668Z,85.40
2018-10-03T22:22:33.295Z,85.80
2018-10-03T22:25:00.826Z,86.40
2018-10-03T22:27:28.385Z,87.10
2018-10-03T22:29:56.719Z,88.10
2018-10-03T22:32:24.690Z,87.70
2018-10-03T22:34:52.256Z,87.90
2018-10-03T22:37:19.815Z,88.10
2018-10-03T22:39:47.407Z,88.90
2018-10-03T22:42:14.963Z,87.80
2018-10-03T22:44:43.004Z,87.50
2018-10-03T22:47:10.874Z,87.40
2018-10-03T22:49:38.456Z,87.30
2018-10-03T22:52:06.040Z,87.20
2018-10-03T22:54:33.602Z,87.10
2018-10-03T22:57:02.418Z,87.20
2018-10-03T22:59:29.979Z,87.20
2018-10-03T23:01:57.543Z,87.20
2018-10-03T23:04:25.137Z,87.90
2018-10-03T23:06:52.698Z,87.40
2018-10-03T23:09:21.182Z,87.40
2018-10-03T23:11:48.753Z,87.50
2018-10-03T23:14:16.309Z,87.50
2018-10-03T23:16:43.905Z,87.50
2018-10-03T23:19:12.234Z,87.00
2018-10-03T23:21:39.829Z,86.90
2018-10-03T23:24:18.168Z,86.20
2018-10-03T23:26:46.488Z,86.70
2018-10-03T23:29:14.470Z,86.60
2018-10-03T23:31:42.046Z,86.70
2018-10-03T23:34:09.603Z,86.90
2018-10-03T23:36:37.201Z,87.00
2018-10-03T23:39:05.523Z,87.70
2018-10-03T23:41:33.118Z,87.60
2018-10-03T23:44:00.686Z,87.00
2018-10-03T23:46:28.264Z,86.90
2018-10-03T23:48:55.882Z,86.80
2018-10-03T23:51:23.458Z,86.20
2018-10-03T23:53:51.036Z,86.20
2018-10-03T23:56:18.627Z,86.40
2018-10-03T23:58:46.181Z,86.70
